Sacramento, CA

1:45 AM PST on December 08, 2016 (GMT -0800)
Sacramento Executive | | Change Station

Elev 26 ft 38.51 °N, 121.50 °W | Updated 52 minutes ago

Overcast
Overcast
40 °F
Feels Like 37 °F
N
5
Wind Variable Wind from North

Today
High -- | Low -- °F
--% Chance of Precip.
Yesterday
High -- | Low -- °F
Precip. -- in
Pressure 30.15 in
Visibility 2.5 miles
Clouds Mostly Cloudy 300 ft
Overcast 800 ft
Windchill 37 °F
Dew Point 40 °F
Humidity 100%
Rainfall 0.16 in
Snow Depth Not available.
7:11 AM 4:44 PM
First Quarter, 61% visible
METAR KSAC 080853Z AUTO 36004KT 2 1/2SM -RA BR BKN003 OVC008 04/04 A3015 RMK AO2 SLP208 P0007 60016 T00440044 58006 $
Pressure 30.15 in
Visibility 2.5 miles
Clouds Mostly Cloudy 300 ft
Overcast 800 ft
Windchill 37 °F
Dew Point 40 °F
Humidity 100%
Rainfall 0.16 in
Snow Depth Not available.
7:11 AM 4:44 PM
First Quarter, 61% visible
METAR KSAC 080853Z AUTO 36004KT 2 1/2SM -RA BR BKN003 OVC008 04/04 A3015 RMK AO2 SLP208 P0007 60016 T00440044 58006 $

10-Day Weather Forecast

Almanac

Astronomy

Dec. 08, 2016 Rise Set
Actual Time
Civil Twilight
Nautical Twilight
Astronomical Twilight
Moon
Length of Visible Light
Length of Day
Tomorrow will be .
, % of the Moon is Illuminated

Today's Extremes

State Highs State Lows

Community

WunderPhotos

Upload Photos

1,956,259 photos uploaded!

WunderBlog® & News

Nearby

Air Quality

  Air Quality AQ Index Pollutant
Not available.

Snow Depth

Station Depth Elevation

Earthquake Activity

City Distance Mag. Time & Date
Minimum magnitude displayed is 2.5.

Coastal Water Temperatures

Place Temperature

Stations

Nearby Weather Stations

Station Location Temp. Windchill Dew Point Humidity Wind Precip. Elev Updated Type
                   

Watches & Warnings

There are currently no watches in effect.